Etusivu
METAR-TAF:

METAR-TAF

Lentoasemat :

Koror, Babeldaob, Palau

Leveyspiiri: 07-22N, Pituuspiiri: 134-32E, korkeus merenpinnasta: 54 m

Tämänhetkinen sää

Tämä raportti tehtiin 1 tunti ja 2 minuuttia sitten, kello 17.50 UTC
Tuuli 5 kn pohjoisesta/koillisesta
Lämpötila 25°C
Kosteus 83%
Ilmanpaine 1010 hPa
Näkyvyys: 24.1 km
Hajanaisia pilviä 1600 ft:n korkeudessa
Hajonneita pilviä 30000 ft:n korkeudessa

METAR: PTRO 191750Z 03005KT 15SM SCT016 BKN300 25/22 A2982

Aika: 03:52 (18:52 UTC)

Sääennuste

Tämä raportti tehtiin 1 tunti ja 16 minuuttia sitten, kello 17.36 UTC
Ennuste voimassa 19. päivästä klo 18 UTC - 20. päivään klo 18 UTC
Tuuli 10 kn koillisesta
Näkyvyys: 10 km
Hajanaisia pilviä 1600 ft:n korkeudessa
Hajanaisia pilviä 14000 ft:n korkeudessa

TAF: PTRO 191736Z 1918/2018 04010KT P6SM SCT016 SCT140

Säähavainnot ja -ennusteet yli 4000 lentoasemalta (METAR- ja TAF-raportit).

Käytössä olevat sääasemat on merkitty karttaan keltaisilla ja punaisilla pisteillä.

Aseta hiiri pisteen päälle nähdäksesi sääaseman nimen.

Klikkaa sitten nähdäksesi säähavainnot ja -ennusteet.

Kartan vaihtaminen: klikkaa mustalla rastilla varustettuja vihreitä pisteitä, niin voit zoomata sisään; viivalla varustettua vihreää pistettä, niin voit zoomata ulos tai vihreitä nuolia, niin pääset viereisille kartoille.


METAR-TAF: